Terminal Aerodrome Forecast
Issued by NWS

Home | Current Version | Previous Version | Text Only | Print | Product List | Glossary On
Versions: 1 2 3 4 5 6 7 8 9 10 11 12 13 14
392
FTAK31 PAJN 302049 AAA
TAFAPG
TAF AMD
PAPG 302049Z 3021/0118 05008KT P6SM FEW100
     FM010400 VRB06KT P6SM SKC
      AMD LTD TO CLD VIS AND WIND 0106/0115=

USA.gov is the U.S. government's official web portal to all federal, state and local government web resources and services.